Time;durP1;ratioP1;P1;durP2;ratioP2;P2;SDS_P1;SDS_P2;PMS_P1;PMS_P2;Temp;Humidity;BMP_temperature;BMP_pressure;BME280_temperature;BME280_humidity;BME280_pressure;Samples;Min_cycle;Max_cycle;Signal;HPM_P1;HPM_P2
2022/06/02 00:03:40;;;;;;;8.70;7.80;;;10.60;99.90;;;;;;8397258;28;20188;-65
2022/06/02 00:07:49;;;;;;;7.77;6.97;;;10.60;99.90;;;;;;8401719;28;20209;-65
2022/06/02 00:12:16;;;;;;;9.37;7.27;;;10.60;99.90;;;;;;8409341;28;20265;-65
2022/06/02 00:16:25;;;;;;;8.47;7.60;;;10.70;99.90;;;;;;8398247;28;20192;-65
2022/06/02 00:20:36;;;;;;;8.60;7.80;;;10.70;99.90;;;;;;8399946;28;20178;-65
2022/06/02 00:24:53;;;;;;;9.27;7.70;;;10.70;99.90;;;;;;8393145;28;20187;-65
2022/06/02 00:29:22;;;;;;;7.90;7.13;;;10.80;99.90;;;;;;8405685;28;20589;-66
2022/06/02 00:33:31;;;;;;;7.40;6.60;;;10.80;99.90;;;;;;8394429;28;20189;-66
2022/06/02 00:37:38;;;;;;;8.40;7.53;;;10.80;99.90;;;;;;8398296;28;20185;-63
2022/06/02 00:42:03;;;;;;;7.03;6.33;;;10.80;99.90;;;;;;8394146;28;20193;-64
2022/06/02 00:46:50;;;;;;;11.47;7.93;;;10.80;99.90;;;;;;8399994;28;20258;-64
2022/06/02 00:51:03;;;;;;;8.63;7.70;;;10.80;99.90;;;;;;8381142;28;20197;-67
2022/06/02 00:59:53;;;;;;;8.50;6.93;;;10.70;99.90;;;;;;8394119;28;20196;-63
2022/06/02 01:03:55;;;;;;;7.23;6.30;;;10.60;99.90;;;;;;8400445;28;20208;-64
2022/06/02 01:08:28;;;;;;;8.30;6.87;;;10.60;99.90;;;;;;8402068;28;20293;-64
2022/06/02 01:12:29;;;;;;;7.70;7.00;;;10.60;99.90;;;;;;8400708;28;20599;-64
2022/06/02 01:16:45;;;;;;;6.47;5.80;;;10.60;99.90;;;;;;8396986;28;20184;-64
2022/06/02 01:21:21;;;;;;;7.23;6.53;;;10.60;99.90;;;;;;8397961;28;20228;-63
2022/06/02 01:25:53;;;;;;;10.87;9.20;;;10.50;99.90;;;;;;8402871;28;20234;-63
2022/06/02 01:30:11;;;;;;;11.77;10.57;;;10.60;99.90;;;;;;8401737;28;20288;-66
2022/06/02 01:34:36;;;;;;;12.30;11.07;;;10.60;99.90;;;;;;8399082;28;20185;-64
2022/06/02 01:38:57;;;;;;;11.63;10.10;;;10.60;99.90;;;;;;8402633;28;20181;-62
2022/06/02 01:43:10;;;;;;;12.77;11.33;;;10.70;99.90;;;;;;8401653;28;20273;-64
2022/06/02 01:47:20;;;;;;;11.63;10.20;;;10.80;99.90;;;;;;8404460;28;20264;-63
2022/06/02 01:51:59;;;;;;;12.23;10.87;;;10.80;99.90;;;;;;8399730;28;20184;-63
2022/06/02 01:56:37;;;;;;;11.20;10.07;;;10.80;99.90;;;;;;8352247;28;20196;-64
2022/06/02 02:00:38;;;;;;;10.20;9.20;;;10.80;99.90;;;;;;8404289;28;20238;-64
2022/06/02 02:05:13;;;;;;;10.03;8.97;;;10.80;99.90;;;;;;8407191;28;20231;-63
2022/06/02 02:09:51;;;;;;;10.97;7.93;;;10.90;99.90;;;;;;8406024;28;20349;-64
2022/06/02 02:14:25;;;;;;;8.07;7.27;;;10.80;99.90;;;;;;8400642;28;20185;-64
2022/06/02 02:19:01;;;;;;;5.27;4.87;;;10.80;99.90;;;;;;8402701;28;20189;-64
2022/06/02 02:23:14;;;;;;;5.17;4.67;;;10.80;99.90;;;;;;8409076;28;20185;-64
2022/06/02 02:27:23;;;;;;;5.33;3.83;;;10.80;99.90;;;;;;8408636;28;20229;-64
2022/06/02 02:31:55;;;;;;;4.70;4.30;;;10.80;99.90;;;;;;8403742;28;20176;-63
2022/06/02 02:36:23;;;;;;;4.00;3.60;;;10.70;99.90;;;;;;8410662;28;20180;-63
2022/06/02 02:41:02;;;;;;;4.27;3.53;;;10.70;99.90;;;;;;8406321;28;20186;-64
2022/06/02 02:45:07;;;;;;;3.63;3.33;;;10.60;99.90;;;;;;8362915;28;20586;-63
2022/06/02 02:49:33;;;;;;;3.77;3.47;;;10.50;99.90;;;;;;8405816;28;20204;-63
2022/06/02 02:54:00;;;;;;;3.87;3.20;;;10.50;99.90;;;;;;8402259;28;20225;-64
2022/06/02 02:58:13;;;;;;;2.73;2.53;;;10.50;99.90;;;;;;8398585;28;20271;-63
2022/06/02 03:02:19;;;;;;;3.57;3.27;;;10.50;99.90;;;;;;8410238;28;20177;-63
2022/06/02 03:06:26;;;;;;;4.03;3.50;;;10.50;99.90;;;;;;8401388;28;20185;-62
2022/06/02 03:10:35;;;;;;;4.03;2.90;;;10.50;99.90;;;;;;8418934;28;20300;-64
2022/06/02 03:15:09;;;;;;;3.30;3.00;;;10.50;99.90;;;;;;8399618;28;20185;-63
2022/06/02 03:19:30;;;;;;;4.27;3.47;;;10.50;99.90;;;;;;8408405;28;20182;-62
2022/06/02 03:23:55;;;;;;;6.47;3.23;;;10.50;99.90;;;;;;8400796;28;20185;-63
2022/06/02 03:28:30;;;;;;;3.00;2.70;;;10.50;99.90;;;;;;8397176;28;20260;-62
2022/06/02 03:32:49;;;;;;;3.60;3.30;;;10.50;99.90;;;;;;8409124;28;20177;-63
2022/06/02 03:37:12;;;;;;;4.50;3.20;;;10.40;99.90;;;;;;8411821;28;20177;-62
2022/06/02 03:41:31;;;;;;;3.97;3.27;;;10.40;99.90;;;;;;8397124;28;20442;-62
2022/06/02 03:46:03;;;;;;;3.80;3.27;;;10.40;99.90;;;;;;8398722;28;20196;-63
2022/06/02 03:50:24;;;;;;;3.60;3.30;;;10.40;99.90;;;;;;8389814;28;20203;-64
2022/06/02 03:54:37;;;;;;;3.70;3.37;;;10.50;99.90;;;;;;8395912;28;20178;-62
2022/06/02 03:58:52;;;;;;;3.73;3.40;;;10.50;99.90;;;;;;8400831;28;20177;-63
2022/06/02 04:03:03;;;;;;;3.40;3.10;;;10.50;99.90;;;;;;8408446;28;20195;-63
2022/06/02 04:07:12;;;;;;;3.57;3.27;;;10.50;99.90;;;;;;8395312;28;20192;-62
2022/06/02 04:16:05;;;;;;;3.83;3.53;;;10.80;99.90;;;;;;8398102;28;20187;-63
2022/06/02 04:20:35;;;;;;;4.00;3.60;;;11.10;99.90;;;;;;8395930;28;20188;-62
2022/06/02 04:24:45;;;;;;;3.17;2.90;;;11.80;99.90;;;;;;8389064;28;20236;-66
2022/06/02 04:29:22;;;;;;;2.80;2.60;;;12.40;99.90;;;;;;8399712;28;20233;-63
2022/06/02 04:33:35;;;;;;;3.07;2.50;;;12.80;99.90;;;;;;8398254;28;20235;-62
2022/06/02 04:37:39;;;;;;;2.97;2.20;;;12.50;99.90;;;;;;8399627;28;20248;-63
2022/06/02 04:42:03;;;;;;;3.67;2.20;;;12.20;99.90;;;;;;8398071;28;20198;-63
2022/06/02 04:46:38;;;;;;;2.60;2.40;;;12.20;99.90;;;;;;8402911;28;20176;-63
2022/06/02 04:50:57;;;;;;;2.10;1.80;;;13.50;99.90;;;;;;8404333;28;20204;-63
2022/06/02 04:55:00;;;;;;;1.70;1.60;;;15.00;99.90;;;;;;8403411;28;20173;-63
2022/06/02 04:59:31;;;;;;;1.87;1.60;;;15.90;80.60;;;;;;8395518;28;20177;-66
2022/06/02 05:03:51;;;;;;;1.60;1.50;;;16.60;99.90;;;;;;8406715;28;20310;-65
2022/06/02 05:07:55;;;;;;;2.17;1.60;;;16.60;99.90;;;;;;8400333;28;20203;-66
2022/06/02 05:12:14;;;;;;;1.77;1.67;;;16.20;99.90;;;;;;8407025;28;20180;-63
2022/06/02 05:16:21;;;;;;;2.30;1.80;;;15.50;1.00;;;;;;8403347;28;20569;-62
2022/06/02 05:20:40;;;;;;;2.10;1.90;;;14.90;99.90;;;;;;8404927;28;20188;-63
2022/06/02 05:24:59;;;;;;;3.00;2.20;;;14.20;92.70;;;;;;8405459;28;20195;-63
2022/06/02 05:29:26;;;;;;;2.03;1.80;;;13.60;1.00;;;;;;8408334;28;20245;-67
2022/06/02 05:33:41;;;;;;;3.83;2.53;;;13.50;99.90;;;;;;8403760;28;20188;-63
2022/06/02 05:38:04;;;;;;;3.40;2.40;;;13.20;1.00;;;;;;8403026;28;20189;-63
2022/06/02 05:42:23;;;;;;;2.93;2.73;;;13.00;1.00;;;;;;8406410;28;20184;-64
2022/06/02 05:46:24;;;;;;;2.90;2.70;;;12.80;1.00;;;;;;8404208;28;20237;-63
2022/06/02 05:50:57;;;;;;;3.10;2.80;;;12.80;99.90;;;;;;8405241;28;20212;-65
2022/06/02 05:55:36;;;;;;;3.80;3.20;;;12.70;99.90;;;;;;8396328;28;20260;-65
2022/06/02 05:59:53;;;;;;;2.90;2.70;;;12.70;1.00;;;;;;8409778;28;20441;-62
2022/06/02 06:04:25;;;;;;;3.37;2.90;;;13.00;99.90;;;;;;8405890;28;20221;-64
2022/06/02 06:09:05;;;;;;;3.63;3.10;;;13.30;99.90;;;;;;8403267;28;20208;-64
2022/06/02 06:13:09;;;;;;;3.13;2.83;;;13.50;99.90;;;;;;8387265;28;20193;-64
2022/06/02 06:17:34;;;;;;;3.90;2.90;;;13.60;99.90;;;;;;8402684;28;20230;-66
2022/06/02 06:21:56;;;;;;;3.07;2.77;;;13.70;1.00;;;;;;8404246;28;20187;-65
2022/06/02 06:26:28;;;;;;;3.33;3.00;;;13.70;1.00;;;;;;8408128;28;20220;-64
2022/06/02 06:31:00;;;;;;;3.00;2.70;;;14.10;99.90;;;;;;8410170;28;20204;-64
2022/06/02 06:35:16;;;;;;;4.20;2.67;;;14.20;99.90;;;;;;8398858;28;20264;-63
2022/06/02 06:39:16;;;;;;;3.83;2.47;;;14.00;99.90;;;;;;8407890;28;20193;-64
2022/06/02 06:43:41;;;;;;;3.50;2.20;;;14.00;99.90;;;;;;8406240;28;20181;-64
2022/06/02 06:47:53;;;;;;;2.93;2.63;;;14.30;1.00;;;;;;8398171;28;20215;-63
2022/06/02 06:52:46;;;;;;;3.23;2.47;;;14.70;99.90;;;;;;8409494;28;20177;-66
2022/06/02 06:57:02;;;;;;;3.43;2.67;;;14.60;99.90;;;;;;8407809;28;20173;-66
2022/06/02 07:01:15;;;;;;;2.43;2.23;;;15.00;1.00;;;;;;8401248;28;20185;-65
2022/06/02 07:05:36;;;;;;;2.40;2.10;;;15.00;1.00;;;;;;8402882;28;20182;-63
2022/06/02 07:09:48;;;;;;;2.40;2.20;;;15.00;11.80;;;;;;8400387;28;20357;-65
2022/06/02 07:13:53;;;;;;;2.23;2.03;;;15.10;99.90;;;;;;8403078;28;20570;-65
2022/06/02 07:18:03;;;;;;;2.67;2.23;;;15.30;82.30;;;;;;8401273;28;20184;-64
2022/06/02 07:22:34;;;;;;;2.20;1.67;;;15.50;1.00;;;;;;8402349;28;20191;-65
2022/06/02 07:26:47;;;;;;;2.57;1.70;;;15.40;1.00;;;;;;8402510;28;20281;-65
2022/06/02 07:31:25;;;;;;;4.03;2.00;;;15.20;1.00;;;;;;8397391;28;20205;-64
2022/06/02 07:36:09;;;;;;;3.00;1.90;;;15.20;99.90;;;;;;8400036;28;20188;-63
2022/06/02 07:40:31;;;;;;;1.77;1.60;;;15.50;99.90;;;;;;8404202;28;20193;-63
2022/06/02 07:44:41;;;;;;;2.10;1.57;;;15.60;99.90;;;;;;8397309;28;20188;-66
2022/06/02 07:49:12;;;;;;;3.07;1.30;;;15.80;18.00;;;;;;8396119;28;20637;-64
2022/06/02 07:53:19;;;;;;;1.40;1.20;;;15.40;99.90;;;;;;8399886;28;20181;-67
2022/06/02 07:57:44;;;;;;;2.23;1.20;;;15.70;99.90;;;;;;8398265;28;20272;-65
2022/06/02 08:02:20;;;;;;;1.60;1.50;;;15.70;99.90;;;;;;8400979;28;20180;-65
2022/06/02 08:06:30;;;;;;;2.50;1.40;;;16.00;99.90;;;;;;8384692;28;20193;-64
2022/06/02 08:11:04;;;;;;;1.10;1.00;;;16.30;1.00;;;;;;8400633;28;20197;-65
2022/06/02 08:15:13;;;;;;;1.20;1.10;;;15.70;34.90;;;;;;8401250;28;20206;-67
2022/06/02 08:19:42;;;;;;;2.27;1.20;;;15.80;29.10;;;;;;8407471;28;20210;-64
2022/06/02 08:24:10;;;;;;;1.33;0.97;;;15.90;99.90;;;;;;8405797;27;20195;-64
2022/06/02 08:28:36;;;;;;;1.60;0.90;;;16.00;99.30;;;;;;8397761;28;20213;-65
2022/06/02 08:33:00;;;;;;;1.57;1.10;;;16.50;1.00;;;;;;8393449;28;20177;-67
2022/06/02 08:37:23;;;;;;;1.03;0.90;;;16.40;1.00;;;;;;8404528;28;20184;-64
2022/06/02 08:42:00;;;;;;;2.27;1.07;;;16.70;1.00;;;;;;8401011;28;20181;-64
2022/06/02 08:46:32;;;;;;;1.17;1.00;;;16.90;99.90;;;;;;8397638;28;20216;-64
2022/06/02 08:50:39;;;;;;;1.30;0.90;;;16.60;99.90;;;;;;8399648;28;20212;-63
2022/06/02 08:55:19;;;;;;;1.40;0.97;;;16.70;99.90;;;;;;8397826;28;20196;-64
2022/06/02 08:59:38;;;;;;;1.20;1.10;;;17.00;1.00;;;;;;8399073;28;20197;-63
2022/06/02 09:04:01;;;;;;;1.90;1.30;;;16.80;99.90;;;;;;8399331;28;20185;-64
2022/06/02 09:08:08;;;;;;;1.33;1.10;;;16.90;36.60;;;;;;8397699;28;20235;-63
2022/06/02 09:12:50;;;;;;;1.10;1.00;;;17.20;1.00;;;;;;8401792;28;20242;-63
2022/06/02 09:16:56;;;;;;;1.67;0.93;;;17.70;99.90;;;;;;8407776;28;20197;-66
2022/06/02 09:21:08;;;;;;;1.70;1.23;;;17.90;99.90;;;;;;8396018;28;20215;-65
2022/06/02 09:25:17;;;;;;;1.47;1.03;;;16.80;99.90;;;;;;8399864;28;20220;-63
2022/06/02 09:29:25;;;;;;;1.10;1.00;;;16.50;99.90;;;;;;8398161;28;20213;-65
2022/06/02 09:33:59;;;;;;;1.10;0.80;;;16.70;99.90;;;;;;8400929;28;20259;-65
2022/06/02 09:38:30;;;;;;;1.20;1.00;;;17.80;99.90;;;;;;8395963;28;20212;-68
2022/06/02 09:42:45;;;;;;;1.00;0.90;;;18.60;99.90;;;;;;8401345;28;20182;-66
2022/06/02 09:46:52;;;;;;;1.17;0.80;;;18.60;99.90;;;;;;8400200;28;20224;-63
2022/06/02 09:51:18;;;;;;;1.43;0.70;;;18.10;99.90;;;;;;8410527;28;20480;-63
2022/06/02 09:55:58;;;;;;;1.37;0.80;;;17.80;99.90;;;;;;8403933;28;20174;-63
2022/06/02 10:00:25;;;;;;;3.30;0.53;;;18.40;99.90;;;;;;8351574;28;20185;-61
2022/06/02 10:04:40;;;;;;;0.93;0.83;;;19.00;99.90;;;;;;8400778;28;20276;-64
2022/06/02 10:09:12;;;;;;;1.00;0.70;;;19.50;99.90;;;;;;8402207;28;20209;-66
2022/06/02 10:13:51;;;;;;;1.17;0.70;;;20.00;99.90;;;;;;8403573;28;20177;-62
2022/06/02 10:17:57;;;;;;;0.97;0.80;;;20.20;99.90;;;;;;8408160;28;20196;-64
2022/06/02 10:22:20;;;;;;;2.60;1.00;;;19.70;99.90;;;;;;8405297;28;20294;-64
2022/06/02 10:26:59;;;;;;;2.13;1.00;;;18.40;99.90;;;;;;8405938;28;20200;-64
2022/06/02 10:31:36;;;;;;;2.50;0.77;;;17.90;99.90;;;;;;8401427;28;20208;-64
2022/06/02 10:36:05;;;;;;;1.37;0.90;;;17.30;99.90;;;;;;8400451;28;20185;-64
2022/06/02 10:40:32;;;;;;;1.43;0.80;;;17.00;99.90;;;;;;8404888;28;20189;-64
2022/06/02 10:44:51;;;;;;;1.33;0.80;;;17.30;99.90;;;;;;8399828;28;20189;-63
2022/06/02 10:49:11;;;;;;;0.80;0.60;;;18.20;99.90;;;;;;8405262;28;20229;-63
2022/06/02 10:53:45;;;;;;;1.53;0.90;;;18.20;99.90;;;;;;8401009;28;20268;-63
2022/06/02 10:58:01;;;;;;;0.80;0.70;;;17.70;99.90;;;;;;8410851;28;20203;-63
2022/06/02 11:02:17;;;;;;;1.07;0.60;;;17.20;99.90;;;;;;8400766;28;20189;-63
2022/06/02 11:06:45;;;;;;;1.53;0.57;;;17.70;99.90;;;;;;8406843;28;20191;-63
2022/06/02 11:11:04;;;;;;;0.87;0.60;;;18.50;99.90;;;;;;8396519;28;20259;-63
2022/06/02 11:15:11;;;;;;;1.23;0.60;;;18.90;99.90;;;;;;8397368;28;20181;-63
2022/06/02 11:19:34;;;;;;;0.50;0.40;;;18.90;51.90;;;;;;8409385;28;20185;-64
2022/06/02 11:23:42;;;;;;;0.80;0.50;;;18.90;21.50;;;;;;8408994;28;20199;-66
2022/06/02 11:28:15;;;;;;;1.17;0.60;;;19.40;89.10;;;;;;8401235;28;20252;-64
2022/06/02 11:32:37;;;;;;;0.80;0.40;;;19.30;58.90;;;;;;8396477;28;20189;-64
2022/06/02 11:36:42;;;;;;;0.40;0.40;;;19.80;80.70;;;;;;8399888;28;20176;-64
2022/06/02 11:41:11;;;;;;;0.70;0.40;;;19.30;59.90;;;;;;8399459;28;20181;-63
2022/06/02 11:45:24;;;;;;;0.60;0.30;;;18.80;99.90;;;;;;8413464;28;20188;-65
2022/06/02 11:49:49;;;;;;;1.33;0.20;;;19.40;99.90;;;;;;8397549;28;20208;-62
2022/06/02 11:54:05;;;;;;;1.07;0.40;;;20.30;99.80;;;;;;8398786;28;20184;-64
2022/06/02 11:58:24;;;;;;;0.80;0.50;;;20.90;1.90;;;;;;8401170;28;20243;-65
2022/06/02 12:02:55;;;;;;;1.20;0.53;;;19.80;1.00;;;;;;8402694;28;20173;-64
2022/06/02 12:07:33;;;;;;;0.40;0.33;;;19.20;12.90;;;;;;8404008;28;20195;-64
2022/06/02 12:11:56;;;;;;;0.50;0.30;;;19.10;35.40;;;;;;8397101;28;20219;-67
2022/06/02 12:16:15;;;;;;;0.77;0.40;;;19.10;47.80;;;;;;8403370;28;20181;-65
2022/06/02 12:21:03;;;;;;;0.63;0.50;;;19.50;61.60;;;;;;8409700;28;20173;-63
2022/06/02 12:25:13;;;;;;;1.63;0.40;;;19.90;16.30;;;;;;8394939;28;20187;-63
2022/06/02 12:29:44;;;;;;;2.10;0.40;;;19.80;25.20;;;;;;8399997;28;20220;-65
2022/06/02 12:33:52;;;;;;;0.47;0.40;;;19.40;30.20;;;;;;8399579;28;20228;-63
2022/06/02 12:38:38;;;;;;;0.60;0.50;;;19.60;40.80;;;;;;8403598;28;20197;-64
2022/06/02 12:43:10;;;;;;;0.50;0.50;;;19.70;84.10;;;;;;8397120;28;20189;-64
2022/06/02 12:47:32;;;;;;;0.40;0.33;;;20.40;73.60;;;;;;8400998;28;20181;-64
2022/06/02 12:51:51;;;;;;;0.40;0.20;;;21.40;1.00;;;;;;8399725;28;20184;-68
2022/06/02 12:56:28;;;;;;;0.30;0.23;;;22.10;1.00;;;;;;8400397;28;20188;-67
2022/06/02 13:01:02;;;;;;;1.60;0.40;;;22.50;1.00;;;;;;8398881;28;20170;-64
2022/06/02 13:05:18;;;;;;;0.90;0.30;;;21.60;1.00;;;;;;8401165;28;20465;-64
2022/06/02 13:09:40;;;;;;;1.57;0.50;;;20.60;1.00;;;;;;8402109;28;20205;-64
2022/06/02 13:14:17;;;;;;;0.60;0.40;;;20.40;1.00;;;;;;8395211;28;20179;-67
2022/06/02 13:18:24;;;;;;;0.63;0.40;;;20.40;1.00;;;;;;8397467;28;20223;-63
2022/06/02 13:22:30;;;;;;;0.70;0.50;;;20.20;1.00;;;;;;8408317;28;20193;-62
2022/06/02 13:27:07;;;;;;;0.90;0.40;;;20.40;1.00;;;;;;8401957;28;20248;-65
2022/06/02 13:31:12;;;;;;;0.50;0.30;;;20.80;1.00;;;;;;8404510;28;20204;-63
2022/06/02 13:35:39;;;;;;;0.80;0.30;;;21.40;1.00;;;;;;8404691;28;20579;-63
2022/06/02 13:39:52;;;;;;;0.37;0.23;;;21.90;1.00;;;;;;8405332;28;20308;-62
2022/06/02 13:44:08;;;;;;;0.50;0.40;;;21.60;1.00;;;;;;8409371;28;20197;-63
2022/06/02 13:48:26;;;;;;;0.80;0.30;;;20.70;1.00;;;;;;8403725;28;20205;-64
2022/06/02 13:52:36;;;;;;;0.40;0.30;;;20.90;1.00;;;;;;8406847;28;20173;-63
2022/06/02 13:57:30;;;;;;;0.80;0.30;;;20.40;1.00;;;;;;8406107;28;20192;-63
2022/06/02 14:01:58;;;;;;;0.60;0.30;;;20.20;1.00;;;;;;8371453;28;20180;-66
2022/06/02 14:06:18;;;;;;;0.43;0.40;;;20.20;1.00;;;;;;8403006;28;20175;-63
2022/06/02 14:10:50;;;;;;;0.37;0.23;;;20.50;1.00;;;;;;8402203;28;20215;-65
2022/06/02 14:15:16;;;;;;;0.40;0.30;;;21.00;1.00;;;;;;8406645;28;20177;-67
2022/06/02 14:19:42;;;;;;;0.73;0.30;;;21.60;1.00;;;;;;8399428;28;20207;-63
2022/06/02 14:24:05;;;;;;;0.60;0.30;;;22.30;1.00;;;;;;8407029;28;20172;-63
2022/06/02 14:28:12;;;;;;;0.50;0.30;;;21.80;1.00;;;;;;8404429;28;20214;-65
2022/06/02 14:32:23;;;;;;;0.50;0.40;;;21.20;1.00;;;;;;8407874;28;20181;-67
2022/06/02 14:36:40;;;;;;;0.40;0.20;;;21.10;1.00;;;;;;8405923;28;20169;-64
2022/06/02 14:41:07;;;;;;;0.60;0.30;;;21.30;1.00;;;;;;8402771;28;20196;-66
2022/06/02 14:45:16;;;;;;;0.60;0.40;;;21.90;1.00;;;;;;8407101;28;20192;-62
2022/06/02 14:49:45;;;;;;;1.13;0.50;;;21.90;1.00;;;;;;8404120;28;20205;-63
2022/06/02 14:54:07;;;;;;;1.00;0.40;;;21.90;1.00;;;;;;8404475;28;20262;-65
2022/06/02 14:58:34;;;;;;;1.70;0.50;;;21.70;1.00;;;;;;8407117;28;20192;-65
2022/06/02 15:03:08;;;;;;;0.97;0.50;;;21.10;1.00;;;;;;8390364;28;20244;-63
2022/06/02 15:07:15;;;;;;;1.13;0.43;;;20.60;1.00;;;;;;8402777;28;20181;-65
2022/06/02 15:11:40;;;;;;;0.60;0.40;;;20.10;1.00;;;;;;8402510;28;20279;-64
2022/06/02 15:16:00;;;;;;;0.73;0.50;;;19.90;1.00;;;;;;8400740;28;20188;-62
2022/06/02 15:20:34;;;;;;;1.80;0.60;;;19.80;1.00;;;;;;8406618;28;20185;-63
2022/06/02 15:25:17;;;;;;;0.60;0.60;;;20.10;1.00;;;;;;8398669;28;20189;-65
2022/06/02 15:29:42;;;;;;;1.23;0.63;;;20.20;1.00;;;;;;8394948;28;20225;-67
2022/06/02 15:34:17;;;;;;;0.50;0.50;;;20.50;1.00;;;;;;8408092;28;20208;-62
2022/06/02 15:38:23;;;;;;;1.00;0.47;;;20.40;1.00;;;;;;8401963;28;20188;-62
2022/06/02 15:42:43;;;;;;;2.60;0.43;;;20.50;1.00;;;;;;8405309;28;20216;-61
2022/06/02 15:47:02;;;;;;;0.70;0.50;;;20.60;1.00;;;;;;8401204;28;20256;-65
2022/06/02 15:51:18;;;;;;;1.30;0.57;;;20.90;1.00;;;;;;8405790;28;20204;-62
2022/06/02 15:55:50;;;;;;;0.50;0.30;;;21.10;1.00;;;;;;8395556;28;20200;-65
2022/06/02 16:00:18;;;;;;;0.87;0.50;;;21.30;1.00;;;;;;8404931;28;20216;-63
2022/06/02 16:04:44;;;;;;;0.57;0.40;;;20.70;1.00;;;;;;8398152;28;20189;-69
2022/06/02 16:13:57;;;;;;;0.77;0.70;;;19.70;1.00;;;;;;8404360;28;20234;-71
2022/06/02 16:18:24;;;;;;;2.60;0.80;;;19.20;1.00;;;;;;8409383;28;20189;-69
2022/06/02 16:22:49;;;;;;;0.70;0.60;;;19.10;1.00;;;;;;8405713;28;20188;-69
2022/06/02 16:27:08;;;;;;;2.17;0.80;;;19.10;1.00;;;;;;8400268;28;20225;-68
2022/06/02 16:31:38;;;;;;;2.40;0.70;;;19.00;1.00;;;;;;8407461;28;20227;-69
2022/06/02 16:36:24;;;;;;;0.70;0.50;;;18.80;1.00;;;;;;8403374;28;20173;-68
2022/06/02 16:40:50;;;;;;;0.60;0.57;;;18.90;1.00;;;;;;8385297;28;20261;-67
2022/06/02 16:45:09;;;;;;;0.57;0.50;;;19.20;1.00;;;;;;8391530;28;20558;-67
2022/06/02 16:49:10;;;;;;;1.30;0.70;;;19.50;1.00;;;;;;8395447;28;20201;-73
2022/06/02 16:53:54;;;;;;;0.93;0.70;;;19.50;1.00;;;;;;8400928;28;20180;-70
2022/06/02 16:58:18;;;;;;;0.97;0.53;;;19.40;1.00;;;;;;8408295;28;20177;-69
2022/06/02 17:02:37;;;;;;;0.77;0.50;;;19.50;1.00;;;;;;8409745;28;20191;-68
2022/06/02 17:06:41;;;;;;;2.40;0.77;;;19.50;1.00;;;;;;8412809;28;20207;-69
2022/06/02 17:11:29;;;;;;;1.33;0.70;;;19.40;1.00;;;;;;8404662;28;20212;-68
2022/06/02 17:15:35;;;;;;;0.50;0.50;;;19.30;1.00;;;;;;8402714;28;20189;-67
2022/06/02 17:20:01;;;;;;;1.47;0.53;;;19.90;1.00;;;;;;8414491;28;20172;-69
2022/06/02 17:24:37;;;;;;;2.17;0.67;;;20.60;1.00;;;;;;8411615;28;20177;-67
2022/06/02 17:28:47;;;;;;;3.17;0.70;;;21.40;1.00;;;;;;8404838;28;20293;-69
2022/06/02 17:33:00;;;;;;;3.53;1.57;;;22.40;1.00;;;;;;8417471;28;20190;-66
2022/06/02 17:37:31;;;;;;;1.33;0.80;;;23.40;1.00;;;;;;8419594;28;20180;-68
2022/06/02 17:41:55;;;;;;;0.73;0.53;;;24.50;1.00;;;;;;8413983;28;20169;-66
2022/06/02 17:45:56;;;;;;;0.90;0.60;;;24.90;1.00;;;;;;8413780;28;20174;-69
2022/06/02 17:50:18;;;;;;;1.00;0.63;;;25.20;1.00;;;;;;8408315;28;20290;-68
2022/06/02 17:54:47;;;;;;;1.00;0.80;;;25.40;1.00;;;;;;8407362;28;20289;-68
2022/06/02 17:59:20;;;;;;;1.52;0.90;;;25.60;1.00;;;;;;8409650;28;20278;-69
2022/06/02 18:03:38;;;;;;;0.68;0.60;;;25.90;1.00;;;;;;8411127;28;20231;-68
2022/06/02 18:08:10;;;;;;;0.70;0.60;;;25.70;1.00;;;;;;8405520;28;20227;-68
2022/06/02 18:12:59;;;;;;;2.10;0.60;;;24.70;1.00;;;;;;8403664;28;20206;-68
2022/06/02 18:17:15;;;;;;;0.70;0.50;;;24.50;1.00;;;;;;8322641;28;20185;-69
2022/06/02 18:21:44;;;;;;;0.60;0.60;;;25.10;1.00;;;;;;8400416;28;20185;-68
2022/06/02 18:25:50;;;;;;;0.80;0.60;;;25.20;1.00;;;;;;8408208;28;20188;-68
2022/06/02 18:30:00;;;;;;;2.07;0.90;;;24.30;1.00;;;;;;8410772;28;20279;-68
2022/06/02 18:34:13;;;;;;;1.77;0.60;;;24.00;1.00;;;;;;8406066;28;20177;-68
2022/06/02 18:38:46;;;;;;;0.60;0.50;;;23.90;1.00;;;;;;8411498;28;20181;-68
2022/06/02 18:43:24;;;;;;;0.80;0.37;;;24.00;1.00;;;;;;8351320;28;20192;-68
2022/06/02 18:47:55;;;;;;;0.53;0.40;;;23.40;1.00;;;;;;8400982;28;20192;-68
2022/06/02 18:52:20;;;;;;;0.60;0.50;;;22.40;1.00;;;;;;8411367;28;20626;-68
2022/06/02 18:57:12;;;;;;;0.83;0.67;;;20.90;44.80;;;;;;8413791;28;20191;-66
2022/06/02 19:01:43;;;;;;;0.60;0.47;;;19.40;99.90;;;;;;8396700;28;20210;-68
2022/06/02 19:16:01;;;;;;;1.20;1.00;;;16.20;1.00;;;;;;8411255;28;20187;-68
2022/06/02 19:20:25;;;;;;;1.40;1.07;;;15.50;56.40;;;;;;8405857;28;20185;-67
2022/06/02 19:24:44;;;;;;;1.67;1.30;;;15.00;99.90;;;;;;8429293;28;20183;-66
2022/06/02 19:29:12;;;;;;;1.87;1.30;;;14.60;99.90;;;;;;8411244;28;20217;-67
2022/06/02 19:33:33;;;;;;;1.20;1.10;;;14.20;99.90;;;;;;8395906;28;20232;-66
2022/06/02 19:37:57;;;;;;;1.27;1.17;;;13.80;1.00;;;;;;8400328;28;20177;-66
2022/06/02 19:42:25;;;;;;;1.27;1.03;;;13.40;24.30;;;;;;8407476;28;20211;-66
2022/06/02 19:47:01;;;;;;;1.23;1.10;;;13.20;99.90;;;;;;8402647;28;20200;-67
2022/06/02 19:51:40;;;;;;;1.20;1.10;;;12.90;99.90;;;;;;8402375;28;20232;-67
2022/06/02 19:55:56;;;;;;;1.23;1.13;;;12.70;99.90;;;;;;8385279;28;20191;-67
2022/06/02 20:00:13;;;;;;;1.20;1.10;;;12.50;99.90;;;;;;8398734;28;20180;-66
2022/06/02 20:04:48;;;;;;;1.20;1.07;;;12.30;99.90;;;;;;8396038;28;20215;-66
2022/06/02 20:08:53;;;;;;;1.63;1.27;;;12.10;99.90;;;;;;8406693;28;20223;-67
2022/06/02 20:13:00;;;;;;;1.37;1.23;;;11.90;1.00;;;;;;8403828;28;20179;-66
2022/06/02 20:17:12;;;;;;;1.30;1.00;;;11.70;1.00;;;;;;8408186;28;20175;-66
2022/06/02 20:21:24;;;;;;;2.07;1.30;;;11.60;99.90;;;;;;8402739;28;20199;-67
2022/06/02 20:25:48;;;;;;;1.33;1.17;;;11.30;99.90;;;;;;8397704;28;20262;-66
2022/06/02 20:30:24;;;;;;;1.53;1.13;;;11.10;99.90;;;;;;8396009;28;20349;-66
2022/06/02 20:34:47;;;;;;;1.30;1.20;;;10.90;1.00;;;;;;8388025;28;20324;-67
2022/06/02 20:38:57;;;;;;;1.50;1.40;;;10.80;1.00;;;;;;8398987;28;20196;-67
2022/06/02 20:43:23;;;;;;;3.40;1.63;;;10.60;1.00;;;;;;8401223;28;20256;-67
2022/06/02 20:47:46;;;;;;;1.37;1.27;;;10.50;99.90;;;;;;8401250;28;20188;-67
2022/06/02 20:52:01;;;;;;;1.40;1.30;;;10.40;99.90;;;;;;8400109;28;20195;-67
2022/06/02 20:56:32;;;;;;;1.60;1.30;;;10.20;99.90;;;;;;8404194;28;20177;-67
2022/06/02 21:00:42;;;;;;;1.30;1.20;;;10.10;99.90;;;;;;8400238;28;20184;-67
2022/06/02 21:04:58;;;;;;;2.80;1.60;;;10.00;99.90;;;;;;8402773;28;20283;-67
2022/06/02 21:09:22;;;;;;;2.40;1.43;;;9.80;99.90;;;;;;8407736;28;20243;-67
2022/06/02 21:13:33;;;;;;;1.73;1.53;;;9.70;99.90;;;;;;8386396;28;20535;-67
2022/06/02 21:17:58;;;;;;;1.83;1.47;;;9.60;1.00;;;;;;8394890;28;20244;-67
2022/06/02 21:22:02;;;;;;;1.57;1.47;;;9.40;99.90;;;;;;8402302;28;20199;-67
2022/06/02 21:26:24;;;;;;;1.57;1.47;;;9.30;99.90;;;;;;8404847;28;20195;-67
2022/06/02 21:30:36;;;;;;;2.03;1.47;;;9.10;99.90;;;;;;8396731;28;20199;-67
2022/06/02 21:34:44;;;;;;;1.50;1.30;;;9.00;1.00;;;;;;8400375;28;20256;-67
2022/06/02 21:38:50;;;;;;;1.50;1.40;;;8.90;99.90;;;;;;8408026;28;20205;-68
2022/06/02 21:43:03;;;;;;;1.83;1.73;;;8.80;99.90;;;;;;8401371;28;20186;-65
2022/06/02 21:47:23;;;;;;;1.30;1.20;;;8.70;99.90;;;;;;8410886;28;20182;-65
2022/06/02 21:51:30;;;;;;;1.60;1.50;;;8.50;1.00;;;;;;8399060;28;20262;-66
2022/06/02 21:55:57;;;;;;;1.70;1.50;;;8.40;99.90;;;;;;8404851;28;20181;-66
2022/06/02 22:00:16;;;;;;;1.60;1.50;;;8.30;99.90;;;;;;8393322;28;20193;-66
2022/06/02 22:04:33;;;;;;;1.80;1.70;;;8.20;1.00;;;;;;8412169;28;20184;-68
2022/06/02 22:08:37;;;;;;;1.47;1.37;;;8.10;1.00;;;;;;8403474;28;20200;-67
2022/06/02 22:12:40;;;;;;;2.20;2.00;;;8.00;1.00;;;;;;8406991;28;20268;-68
2022/06/02 22:16:53;;;;;;;2.30;1.60;;;7.90;1.00;;;;;;8410339;28;20597;-67
2022/06/02 22:21:07;;;;;;;1.80;1.70;;;7.80;99.90;;;;;;8411983;28;20188;-66
2022/06/02 22:25:22;;;;;;;1.70;1.60;;;7.70;99.90;;;;;;8407297;28;20192;-67
2022/06/02 22:30:07;;;;;;;1.97;1.80;;;7.60;99.90;;;;;;8400908;28;20219;-68
2022/06/02 22:34:29;;;;;;;1.97;1.77;;;7.50;1.00;;;;;;8281685;28;20189;-67
2022/06/02 22:39:17;;;;;;;1.90;1.70;;;7.40;1.00;;;;;;8343914;28;20193;-67
2022/06/02 22:43:39;;;;;;;1.70;1.60;;;7.30;99.90;;;;;;8400525;28;20193;-69
2022/06/02 22:47:52;;;;;;;2.43;2.00;;;7.30;1.00;;;;;;8407451;28;20181;-67
2022/06/02 22:52:14;;;;;;;1.70;1.60;;;7.20;99.90;;;;;;8400961;28;20181;-67
2022/06/02 22:56:29;;;;;;;2.60;2.30;;;7.10;99.90;;;;;;8403676;28;20204;-67
2022/06/02 23:01:04;;;;;;;2.23;2.03;;;6.90;1.00;;;;;;8408904;28;20227;-67
2022/06/02 23:05:35;;;;;;;2.20;2.00;;;6.80;99.90;;;;;;8400325;28;20181;-67
2022/06/02 23:09:47;;;;;;;2.67;2.10;;;6.70;99.90;;;;;;8403019;28;20775;-67
2022/06/02 23:14:26;;;;;;;2.60;2.40;;;6.60;1.00;;;;;;8401091;28;20189;-67